sensor_id;sensor_type;location;lat;lon;timestamp;P1;durP1;ratioP1;P2;durP2;ratioP2
50124;SDS011;36023;48.670;6.184;2023-04-24T00:00:59;0.55;;;0.00;;
50124;SDS011;36023;48.670;6.184;2023-04-24T00:03:27;0.05;;;0.00;;
50124;SDS011;36023;48.670;6.184;2023-04-24T00:05:54;1.10;;;0.32;;
50124;SDS011;36023;48.670;6.184;2023-04-24T00:08:21;0.45;;;0.10;;
50124;SDS011;36023;48.670;6.184;2023-04-24T00:10:48;0.50;;;0.20;;
50124;SDS011;36023;48.670;6.184;2023-04-24T00:13:14;0.10;;;0.00;;
50124;SDS011;36023;48.670;6.184;2023-04-24T00:15:40;0.00;;;0.00;;
50124;SDS011;36023;48.670;6.184;2023-04-24T00:18:06;0.00;;;0.00;;
50124;SDS011;36023;48.670;6.184;2023-04-24T00:20:31;0.10;;;0.00;;
50124;SDS011;36023;48.670;6.184;2023-04-24T00:23:01;0.10;;;0.03;;
50124;SDS011;36023;48.670;6.184;2023-04-24T00:25:27;0.70;;;0.08;;
50124;SDS011;36023;48.670;6.184;2023-04-24T00:27:53;2.45;;;0.10;;
50124;SDS011;36023;48.670;6.184;2023-04-24T00:30:18;0.00;;;0.00;;
50124;SDS011;36023;48.670;6.184;2023-04-24T00:32:44;0.00;;;0.00;;
50124;SDS011;36023;48.670;6.184;2023-04-24T00:35:11;0.15;;;0.05;;
50124;SDS011;36023;48.670;6.184;2023-04-24T00:37:37;1.75;;;0.00;;
50124;SDS011;36023;48.670;6.184;2023-04-24T00:40:03;0.10;;;0.00;;
50124;SDS011;36023;48.670;6.184;2023-04-24T00:42:29;0.00;;;0.00;;
50124;SDS011;36023;48.670;6.184;2023-04-24T00:44:57;0.10;;;0.10;;
50124;SDS011;36023;48.670;6.184;2023-04-24T00:47:23;1.85;;;0.10;;
50124;SDS011;36023;48.670;6.184;2023-04-24T00:49:49;0.28;;;0.17;;
50124;SDS011;36023;48.670;6.184;2023-04-24T00:52:15;0.10;;;0.10;;
50124;SDS011;36023;48.670;6.184;2023-04-24T00:54:46;0.25;;;0.00;;
50124;SDS011;36023;48.670;6.184;2023-04-24T00:57:12;0.00;;;0.00;;
50124;SDS011;36023;48.670;6.184;2023-04-24T00:59:41;0.10;;;0.10;;
50124;SDS011;36023;48.670;6.184;2023-04-24T01:02:08;0.10;;;0.08;;
50124;SDS011;36023;48.670;6.184;2023-04-24T01:04:36;1.45;;;0.10;;
50124;SDS011;36023;48.670;6.184;2023-04-24T01:07:05;0.30;;;0.10;;
50124;SDS011;36023;48.670;6.184;2023-04-24T01:09:39;0.20;;;0.08;;
50124;SDS011;36023;48.670;6.184;2023-04-24T01:12:08;0.30;;;0.25;;
50124;SDS011;36023;48.670;6.184;2023-04-24T01:14:36;0.88;;;0.00;;
50124;SDS011;36023;48.670;6.184;2023-04-24T01:17:03;0.47;;;0.08;;
50124;SDS011;36023;48.670;6.184;2023-04-24T01:19:29;0.17;;;0.10;;
50124;SDS011;36023;48.670;6.184;2023-04-24T01:21:57;1.08;;;0.13;;
50124;SDS011;36023;48.670;6.184;2023-04-24T01:24:24;0.75;;;0.10;;
50124;SDS011;36023;48.670;6.184;2023-04-24T01:26:50;0.08;;;0.00;;
50124;SDS011;36023;48.670;6.184;2023-04-24T01:29:18;0.20;;;0.20;;
50124;SDS011;36023;48.670;6.184;2023-04-24T01:31:44;0.10;;;0.00;;
50124;SDS011;36023;48.670;6.184;2023-04-24T01:34:10;0.43;;;0.25;;
50124;SDS011;36023;48.670;6.184;2023-04-24T01:36:37;0.10;;;0.03;;
50124;SDS011;36023;48.670;6.184;2023-04-24T01:39:04;0.75;;;0.28;;
50124;SDS011;36023;48.670;6.184;2023-04-24T01:41:31;0.10;;;0.00;;
50124;SDS011;36023;48.670;6.184;2023-04-24T01:43:59;0.00;;;0.00;;
50124;SDS011;36023;48.670;6.184;2023-04-24T01:46:24;0.05;;;0.00;;
50124;SDS011;36023;48.670;6.184;2023-04-24T01:48:50;0.90;;;0.10;;
50124;SDS011;36023;48.670;6.184;2023-04-24T01:51:18;0.15;;;0.10;;
50124;SDS011;36023;48.670;6.184;2023-04-24T01:53:44;0.55;;;0.20;;
50124;SDS011;36023;48.670;6.184;2023-04-24T01:56:11;0.22;;;0.15;;
50124;SDS011;36023;48.670;6.184;2023-04-24T01:58:38;0.35;;;0.10;;
50124;SDS011;36023;48.670;6.184;2023-04-24T02:01:05;0.43;;;0.03;;
50124;SDS011;36023;48.670;6.184;2023-04-24T02:03:32;2.17;;;0.10;;
50124;SDS011;36023;48.670;6.184;2023-04-24T02:05:58;0.10;;;0.03;;
50124;SDS011;36023;48.670;6.184;2023-04-24T02:08:25;0.52;;;0.10;;
50124;SDS011;36023;48.670;6.184;2023-04-24T02:10:50;0.20;;;0.10;;
50124;SDS011;36023;48.670;6.184;2023-04-24T02:13:17;0.13;;;0.10;;
50124;SDS011;36023;48.670;6.184;2023-04-24T02:15:43;0.00;;;0.00;;
50124;SDS011;36023;48.670;6.184;2023-04-24T02:18:08;0.10;;;0.10;;
50124;SDS011;36023;48.670;6.184;2023-04-24T02:20:34;0.32;;;0.10;;
50124;SDS011;36023;48.670;6.184;2023-04-24T02:23:01;0.20;;;0.08;;
50124;SDS011;36023;48.670;6.184;2023-04-24T02:25:27;0.00;;;0.00;;
50124;SDS011;36023;48.670;6.184;2023-04-24T02:27:55;0.35;;;0.25;;
50124;SDS011;36023;48.670;6.184;2023-04-24T02:30:21;0.35;;;0.10;;
50124;SDS011;36023;48.670;6.184;2023-04-24T02:32:46;0.10;;;0.10;;
50124;SDS011;36023;48.670;6.184;2023-04-24T02:35:12;0.20;;;0.10;;
50124;SDS011;36023;48.670;6.184;2023-04-24T02:37:39;0.17;;;0.10;;
50124;SDS011;36023;48.670;6.184;2023-04-24T02:40:05;0.38;;;0.22;;
50124;SDS011;36023;48.670;6.184;2023-04-24T02:42:32;0.20;;;0.10;;
50124;SDS011;36023;48.670;6.184;2023-04-24T02:44:57;0.30;;;0.20;;
50124;SDS011;36023;48.670;6.184;2023-04-24T02:47:24;0.45;;;0.30;;
50124;SDS011;36023;48.670;6.184;2023-04-24T02:49:50;0.10;;;0.10;;
50124;SDS011;36023;48.670;6.184;2023-04-24T02:52:15;0.15;;;0.10;;
50124;SDS011;36023;48.670;6.184;2023-04-24T02:54:42;0.20;;;0.08;;
50124;SDS011;36023;48.670;6.184;2023-04-24T02:57:09;0.20;;;0.10;;
50124;SDS011;36023;48.670;6.184;2023-04-24T02:59:37;0.20;;;0.10;;
50124;SDS011;36023;48.670;6.184;2023-04-24T03:02:04;0.20;;;0.10;;
50124;SDS011;36023;48.670;6.184;2023-04-24T03:04:30;0.00;;;0.00;;
50124;SDS011;36023;48.670;6.184;2023-04-24T03:06:58;1.88;;;0.10;;
50124;SDS011;36023;48.670;6.184;2023-04-24T03:09:24;0.52;;;0.10;;
50124;SDS011;36023;48.670;6.184;2023-04-24T03:11:52;0.13;;;0.00;;
50124;SDS011;36023;48.670;6.184;2023-04-24T03:14:17;0.10;;;0.10;;
50124;SDS011;36023;48.670;6.184;2023-04-24T03:16:43;0.10;;;0.00;;
50124;SDS011;36023;48.670;6.184;2023-04-24T03:19:09;0.20;;;0.17;;
50124;SDS011;36023;48.670;6.184;2023-04-24T03:21:42;0.55;;;0.20;;
50124;SDS011;36023;48.670;6.184;2023-04-24T03:24:08;0.10;;;0.10;;
50124;SDS011;36023;48.670;6.184;2023-04-24T03:26:35;0.82;;;0.10;;
50124;SDS011;36023;48.670;6.184;2023-04-24T03:29:14;0.28;;;0.15;;
50124;SDS011;36023;48.670;6.184;2023-04-24T03:31:41;0.13;;;0.10;;
50124;SDS011;36023;48.670;6.184;2023-04-24T03:34:07;0.55;;;0.25;;
50124;SDS011;36023;48.670;6.184;2023-04-24T03:36:33;0.35;;;0.10;;
50124;SDS011;36023;48.670;6.184;2023-04-24T03:38:59;0.40;;;0.10;;
50124;SDS011;36023;48.670;6.184;2023-04-24T03:41:31;0.17;;;0.17;;
50124;SDS011;36023;48.670;6.184;2023-04-24T03:44:09;0.30;;;0.10;;
50124;SDS011;36023;48.670;6.184;2023-04-24T03:46:35;0.20;;;0.10;;
50124;SDS011;36023;48.670;6.184;2023-04-24T03:49:01;0.10;;;0.00;;
50124;SDS011;36023;48.670;6.184;2023-04-24T03:51:31;0.17;;;0.10;;
50124;SDS011;36023;48.670;6.184;2023-04-24T03:54:06;0.85;;;0.22;;
50124;SDS011;36023;48.670;6.184;2023-04-24T03:56:36;0.20;;;0.10;;
50124;SDS011;36023;48.670;6.184;2023-04-24T03:59:02;0.60;;;0.40;;
50124;SDS011;36023;48.670;6.184;2023-04-24T04:01:29;0.43;;;0.20;;
50124;SDS011;36023;48.670;6.184;2023-04-24T04:04:03;0.82;;;0.40;;
50124;SDS011;36023;48.670;6.184;2023-04-24T04:06:31;0.22;;;0.10;;
50124;SDS011;36023;48.670;6.184;2023-04-24T04:09:00;0.20;;;0.10;;
50124;SDS011;36023;48.670;6.184;2023-04-24T04:11:26;0.17;;;0.10;;
50124;SDS011;36023;48.670;6.184;2023-04-24T04:13:52;0.22;;;0.08;;
50124;SDS011;36023;48.670;6.184;2023-04-24T04:16:20;0.10;;;0.10;;
50124;SDS011;36023;48.670;6.184;2023-04-24T04:18:48;0.60;;;0.40;;
50124;SDS011;36023;48.670;6.184;2023-04-24T04:21:14;0.20;;;0.10;;
50124;SDS011;36023;48.670;6.184;2023-04-24T04:23:40;0.10;;;0.10;;
50124;SDS011;36023;48.670;6.184;2023-04-24T04:26:19;0.10;;;0.10;;
50124;SDS011;36023;48.670;6.184;2023-04-24T04:29:01;0.10;;;0.08;;
50124;SDS011;36023;48.670;6.184;2023-04-24T04:31:29;0.00;;;0.00;;
50124;SDS011;36023;48.670;6.184;2023-04-24T04:33:58;0.20;;;0.20;;
50124;SDS011;36023;48.670;6.184;2023-04-24T04:36:25;0.30;;;0.10;;
50124;SDS011;36023;48.670;6.184;2023-04-24T04:38:58;0.17;;;0.10;;
50124;SDS011;36023;48.670;6.184;2023-04-24T04:41:48;0.03;;;0.03;;
50124;SDS011;36023;48.670;6.184;2023-04-24T04:44:16;0.05;;;0.05;;
50124;SDS011;36023;48.670;6.184;2023-04-24T04:46:42;0.28;;;0.15;;
50124;SDS011;36023;48.670;6.184;2023-04-24T04:49:25;0.38;;;0.20;;
50124;SDS011;36023;48.670;6.184;2023-04-24T04:51:53;0.00;;;0.00;;
50124;SDS011;36023;48.670;6.184;2023-04-24T04:54:19;0.40;;;0.10;;
50124;SDS011;36023;48.670;6.184;2023-04-24T04:56:46;0.10;;;0.10;;
50124;SDS011;36023;48.670;6.184;2023-04-24T04:59:11;0.15;;;0.10;;
50124;SDS011;36023;48.670;6.184;2023-04-24T05:01:41;0.10;;;0.10;;
50124;SDS011;36023;48.670;6.184;2023-04-24T05:04:07;0.50;;;0.10;;
50124;SDS011;36023;48.670;6.184;2023-04-24T05:06:34;0.63;;;0.15;;
50124;SDS011;36023;48.670;6.184;2023-04-24T05:08:59;0.63;;;0.20;;
50124;SDS011;36023;48.670;6.184;2023-04-24T05:11:44;0.40;;;0.20;;
50124;SDS011;36023;48.670;6.184;2023-04-24T05:14:10;0.20;;;0.10;;
50124;SDS011;36023;48.670;6.184;2023-04-24T05:16:39;0.08;;;0.00;;
50124;SDS011;36023;48.670;6.184;2023-04-24T05:19:06;0.20;;;0.10;;
50124;SDS011;36023;48.670;6.184;2023-04-24T05:21:38;0.15;;;0.13;;
50124;SDS011;36023;48.670;6.184;2023-04-24T05:24:05;0.22;;;0.10;;
50124;SDS011;36023;48.670;6.184;2023-04-24T05:27:04;0.28;;;0.20;;
50124;SDS011;36023;48.670;6.184;2023-04-24T05:29:35;0.40;;;0.20;;
50124;SDS011;36023;48.670;6.184;2023-04-24T05:32:02;0.00;;;0.00;;
50124;SDS011;36023;48.670;6.184;2023-04-24T05:34:30;0.17;;;0.10;;
50124;SDS011;36023;48.670;6.184;2023-04-24T05:36:57;0.25;;;0.08;;
50124;SDS011;36023;48.670;6.184;2023-04-24T05:39:22;0.80;;;0.20;;
50124;SDS011;36023;48.670;6.184;2023-04-24T05:41:50;0.10;;;0.00;;
50124;SDS011;36023;48.670;6.184;2023-04-24T05:44:19;1.40;;;0.50;;
50124;SDS011;36023;48.670;6.184;2023-04-24T05:46:44;0.75;;;0.20;;
50124;SDS011;36023;48.670;6.184;2023-04-24T05:49:10;2.72;;;0.20;;
50124;SDS011;36023;48.670;6.184;2023-04-24T05:51:36;0.82;;;0.20;;
50124;SDS011;36023;48.670;6.184;2023-04-24T05:54:02;0.17;;;0.10;;
50124;SDS011;36023;48.670;6.184;2023-04-24T05:56:28;2.05;;;0.20;;
50124;SDS011;36023;48.670;6.184;2023-04-24T05:58:57;0.05;;;0.05;;
50124;SDS011;36023;48.670;6.184;2023-04-24T06:01:22;0.30;;;0.15;;
50124;SDS011;36023;48.670;6.184;2023-04-24T06:03:55;0.38;;;0.15;;
50124;SDS011;36023;48.670;6.184;2023-04-24T06:06:25;0.45;;;0.28;;
50124;SDS011;36023;48.670;6.184;2023-04-24T06:08:53;2.75;;;0.30;;
50124;SDS011;36023;48.670;6.184;2023-04-24T06:11:19;1.27;;;0.17;;
50124;SDS011;36023;48.670;6.184;2023-04-24T06:13:45;0.15;;;0.10;;
50124;SDS011;36023;48.670;6.184;2023-04-24T06:16:30;0.10;;;0.10;;
50124;SDS011;36023;48.670;6.184;2023-04-24T06:19:02;0.55;;;0.20;;
50124;SDS011;36023;48.670;6.184;2023-04-24T06:21:28;0.30;;;0.20;;
50124;SDS011;36023;48.670;6.184;2023-04-24T06:23:55;1.25;;;0.20;;
50124;SDS011;36023;48.670;6.184;2023-04-24T06:26:21;1.23;;;0.10;;
50124;SDS011;36023;48.670;6.184;2023-04-24T06:28:47;0.30;;;0.20;;
50124;SDS011;36023;48.670;6.184;2023-04-24T06:31:13;0.20;;;0.10;;
50124;SDS011;36023;48.670;6.184;2023-04-24T06:33:39;0.52;;;0.20;;
50124;SDS011;36023;48.670;6.184;2023-04-24T06:36:05;0.40;;;0.13;;
50124;SDS011;36023;48.670;6.184;2023-04-24T06:38:32;0.20;;;0.10;;
50124;SDS011;36023;48.670;6.184;2023-04-24T06:40:57;0.10;;;0.10;;
50124;SDS011;36023;48.670;6.184;2023-04-24T06:43:23;0.95;;;0.40;;
50124;SDS011;36023;48.670;6.184;2023-04-24T06:45:49;0.30;;;0.20;;
50124;SDS011;36023;48.670;6.184;2023-04-24T06:48:15;0.57;;;0.40;;
50124;SDS011;36023;48.670;6.184;2023-04-24T06:50:41;0.10;;;0.10;;
50124;SDS011;36023;48.670;6.184;2023-04-24T06:53:06;0.10;;;0.10;;
50124;SDS011;36023;48.670;6.184;2023-04-24T06:55:32;1.52;;;0.32;;
50124;SDS011;36023;48.670;6.184;2023-04-24T06:57:58;0.60;;;0.20;;
50124;SDS011;36023;48.670;6.184;2023-04-24T07:00:24;0.15;;;0.10;;
50124;SDS011;36023;48.670;6.184;2023-04-24T07:02:49;4.28;;;0.30;;
50124;SDS011;36023;48.670;6.184;2023-04-24T07:05:15;0.50;;;0.30;;
50124;SDS011;36023;48.670;6.184;2023-04-24T07:07:41;0.25;;;0.17;;
50124;SDS011;36023;48.670;6.184;2023-04-24T07:10:08;0.68;;;0.15;;
50124;SDS011;36023;48.670;6.184;2023-04-24T07:12:33;0.30;;;0.20;;
50124;SDS011;36023;48.670;6.184;2023-04-24T07:15:00;0.20;;;0.20;;
50124;SDS011;36023;48.670;6.184;2023-04-24T07:17:26;0.30;;;0.10;;
50124;SDS011;36023;48.670;6.184;2023-04-24T07:19:52;0.88;;;0.30;;
50124;SDS011;36023;48.670;6.184;2023-04-24T07:22:17;0.60;;;0.20;;
50124;SDS011;36023;48.670;6.184;2023-04-24T07:24:43;0.55;;;0.20;;
50124;SDS011;36023;48.670;6.184;2023-04-24T07:27:09;1.25;;;0.60;;
50124;SDS011;36023;48.670;6.184;2023-04-24T07:29:35;0.40;;;0.20;;
50124;SDS011;36023;48.670;6.184;2023-04-24T07:32:00;0.38;;;0.20;;
50124;SDS011;36023;48.670;6.184;2023-04-24T07:34:26;0.50;;;0.43;;
50124;SDS011;36023;48.670;6.184;2023-04-24T07:36:53;0.75;;;0.30;;
50124;SDS011;36023;48.670;6.184;2023-04-24T07:39:19;0.43;;;0.28;;
50124;SDS011;36023;48.670;6.184;2023-04-24T07:41:44;1.48;;;0.43;;
50124;SDS011;36023;48.670;6.184;2023-04-24T07:44:11;0.65;;;0.30;;
50124;SDS011;36023;48.670;6.184;2023-04-24T07:46:37;0.50;;;0.32;;
50124;SDS011;36023;48.670;6.184;2023-04-24T07:49:02;0.45;;;0.17;;
50124;SDS011;36023;48.670;6.184;2023-04-24T07:51:29;1.55;;;0.20;;
50124;SDS011;36023;48.670;6.184;2023-04-24T07:53:56;1.25;;;0.25;;
50124;SDS011;36023;48.670;6.184;2023-04-24T07:56:21;0.55;;;0.45;;
50124;SDS011;36023;48.670;6.184;2023-04-24T07:58:48;0.40;;;0.32;;
50124;SDS011;36023;48.670;6.184;2023-04-24T08:01:14;0.40;;;0.20;;
50124;SDS011;36023;48.670;6.184;2023-04-24T08:03:40;0.98;;;0.35;;
50124;SDS011;36023;48.670;6.184;2023-04-24T08:06:05;1.08;;;0.20;;
50124;SDS011;36023;48.670;6.184;2023-04-24T08:08:34;0.43;;;0.30;;
50124;SDS011;36023;48.670;6.184;2023-04-24T08:11:00;2.17;;;0.60;;
50124;SDS011;36023;48.670;6.184;2023-04-24T08:13:26;0.70;;;0.40;;
50124;SDS011;36023;48.670;6.184;2023-04-24T08:15:51;1.05;;;0.22;;
50124;SDS011;36023;48.670;6.184;2023-04-24T08:18:17;0.90;;;0.40;;
50124;SDS011;36023;48.670;6.184;2023-04-24T08:20:43;0.50;;;0.28;;
50124;SDS011;36023;48.670;6.184;2023-04-24T08:23:08;2.97;;;0.45;;
50124;SDS011;36023;48.670;6.184;2023-04-24T08:25:36;0.15;;;0.10;;
50124;SDS011;36023;48.670;6.184;2023-04-24T08:28:02;0.35;;;0.20;;
50124;SDS011;36023;48.670;6.184;2023-04-24T08:30:29;0.40;;;0.30;;
50124;SDS011;36023;48.670;6.184;2023-04-24T08:32:55;0.75;;;0.38;;
50124;SDS011;36023;48.670;6.184;2023-04-24T08:35:21;0.40;;;0.30;;
50124;SDS011;36023;48.670;6.184;2023-04-24T08:37:47;1.38;;;0.40;;
50124;SDS011;36023;48.670;6.184;2023-04-24T08:40:13;0.30;;;0.20;;
50124;SDS011;36023;48.670;6.184;2023-04-24T08:42:41;0.98;;;0.10;;
50124;SDS011;36023;48.670;6.184;2023-04-24T08:45:09;1.30;;;0.40;;
50124;SDS011;36023;48.670;6.184;2023-04-24T08:47:37;0.55;;;0.30;;
50124;SDS011;36023;48.670;6.184;2023-04-24T08:50:04;0.50;;;0.30;;
50124;SDS011;36023;48.670;6.184;2023-04-24T08:52:34;0.65;;;0.35;;
50124;SDS011;36023;48.670;6.184;2023-04-24T08:55:00;0.65;;;0.30;;
50124;SDS011;36023;48.670;6.184;2023-04-24T08:57:28;0.30;;;0.20;;
50124;SDS011;36023;48.670;6.184;2023-04-24T08:59:54;0.50;;;0.17;;
50124;SDS011;36023;48.670;6.184;2023-04-24T09:02:21;0.82;;;0.32;;
50124;SDS011;36023;48.670;6.184;2023-04-24T09:04:49;0.20;;;0.13;;
50124;SDS011;36023;48.670;6.184;2023-04-24T09:07:16;0.73;;;0.40;;
50124;SDS011;36023;48.670;6.184;2023-04-24T09:09:44;0.80;;;0.30;;
50124;SDS011;36023;48.670;6.184;2023-04-24T09:12:10;1.58;;;0.30;;
50124;SDS011;36023;48.670;6.184;2023-04-24T09:14:37;0.40;;;0.20;;
50124;SDS011;36023;48.670;6.184;2023-04-24T09:17:07;1.10;;;0.35;;
50124;SDS011;36023;48.670;6.184;2023-04-24T09:19:33;0.77;;;0.50;;
50124;SDS011;36023;48.670;6.184;2023-04-24T09:21:59;1.30;;;0.47;;
50124;SDS011;36023;48.670;6.184;2023-04-24T09:24:24;0.80;;;0.50;;
50124;SDS011;36023;48.670;6.184;2023-04-24T09:26:56;0.30;;;0.13;;
50124;SDS011;36023;48.670;6.184;2023-04-24T09:29:32;2.08;;;0.20;;
50124;SDS011;36023;48.670;6.184;2023-04-24T09:31:58;2.03;;;0.30;;
50124;SDS011;36023;48.670;6.184;2023-04-24T09:34:25;0.77;;;0.30;;
50124;SDS011;36023;48.670;6.184;2023-04-24T09:36:54;0.43;;;0.22;;
50124;SDS011;36023;48.670;6.184;2023-04-24T09:39:20;0.65;;;0.30;;
50124;SDS011;36023;48.670;6.184;2023-04-24T09:41:47;0.35;;;0.30;;
50124;SDS011;36023;48.670;6.184;2023-04-24T09:44:27;4.00;;;0.30;;
50124;SDS011;36023;48.670;6.184;2023-04-24T09:46:57;0.20;;;0.20;;
50124;SDS011;36023;48.670;6.184;2023-04-24T09:51:50;0.55;;;0.32;;
50124;SDS011;36023;48.670;6.184;2023-04-24T09:54:20;1.75;;;0.43;;
50124;SDS011;36023;48.670;6.184;2023-04-24T09:56:47;2.92;;;0.52;;
50124;SDS011;36023;48.670;6.184;2023-04-24T09:59:19;3.70;;;0.50;;
50124;SDS011;36023;48.670;6.184;2023-04-24T10:01:45;2.28;;;0.63;;
50124;SDS011;36023;48.670;6.184;2023-04-24T10:04:16;1.15;;;0.50;;
50124;SDS011;36023;48.670;6.184;2023-04-24T10:06:46;0.50;;;0.38;;
50124;SDS011;36023;48.670;6.184;2023-04-24T10:09:15;2.53;;;0.30;;
50124;SDS011;36023;48.670;6.184;2023-04-24T10:11:49;0.80;;;0.50;;
50124;SDS011;36023;48.670;6.184;2023-04-24T10:14:20;2.88;;;0.20;;
50124;SDS011;36023;48.670;6.184;2023-04-24T10:16:47;0.60;;;0.20;;
50124;SDS011;36023;48.670;6.184;2023-04-24T10:19:14;1.85;;;0.40;;
50124;SDS011;36023;48.670;6.184;2023-04-24T10:21:41;3.17;;;0.47;;
50124;SDS011;36023;48.670;6.184;2023-04-24T10:24:18;3.10;;;1.00;;
50124;SDS011;36023;48.670;6.184;2023-04-24T10:26:48;0.77;;;0.47;;
50124;SDS011;36023;48.670;6.184;2023-04-24T10:29:16;0.75;;;0.52;;
50124;SDS011;36023;48.670;6.184;2023-04-24T10:31:43;0.85;;;0.47;;
50124;SDS011;36023;48.670;6.184;2023-04-24T10:34:13;1.27;;;0.30;;
50124;SDS011;36023;48.670;6.184;2023-04-24T10:36:48;0.30;;;0.20;;
50124;SDS011;36023;48.670;6.184;2023-04-24T10:39:17;0.47;;;0.20;;
50124;SDS011;36023;48.670;6.184;2023-04-24T10:41:45;39.15;;;11.48;;
50124;SDS011;36023;48.670;6.184;2023-04-24T10:44:15;657.97;;;225.38;;
50124;SDS011;36023;48.670;6.184;2023-04-24T10:46:44;473.50;;;206.35;;
50124;SDS011;36023;48.670;6.184;2023-04-24T10:49:13;389.90;;;160.13;;
50124;SDS011;36023;48.670;6.184;2023-04-24T10:51:49;367.58;;;135.15;;
50124;SDS011;36023;48.670;6.184;2023-04-24T10:54:23;362.88;;;138.25;;
50124;SDS011;36023;48.670;6.184;2023-04-24T10:59:47;312.50;;;110.65;;
50124;SDS011;36023;48.670;6.184;2023-04-24T11:02:35;315.13;;;112.40;;
50124;SDS011;36023;48.670;6.184;2023-04-24T11:05:04;302.73;;;105.60;;
50124;SDS011;36023;48.670;6.184;2023-04-24T11:07:57;301.73;;;107.93;;
50124;SDS011;36023;48.670;6.184;2023-04-24T11:11:18;274.05;;;86.40;;
50124;SDS011;36023;48.670;6.184;2023-04-24T11:13:27;233.25;;;79.97;;
50124;SDS011;36023;48.670;6.184;2023-04-24T11:16:32;254.30;;;81.38;;
50124;SDS011;36023;48.670;6.184;2023-04-24T11:19:05;177.48;;;62.58;;
50124;SDS011;36023;48.670;6.184;2023-04-24T11:24:23;170.70;;;57.90;;
50124;SDS011;36023;48.670;6.184;2023-04-24T11:29:16;132.68;;;49.42;;
50124;SDS011;36023;48.670;6.184;2023-04-24T11:31:46;141.07;;;49.42;;
50124;SDS011;36023;48.670;6.184;2023-04-24T11:34:16;126.63;;;46.40;;
50124;SDS011;36023;48.670;6.184;2023-04-24T11:36:47;120.30;;;38.78;;
50124;SDS011;36023;48.670;6.184;2023-04-24T11:39:13;147.85;;;48.92;;
50124;SDS011;36023;48.670;6.184;2023-04-24T11:41:41;125.72;;;40.22;;
50124;SDS011;36023;48.670;6.184;2023-04-24T11:44:08;126.90;;;40.38;;
50124;SDS011;36023;48.670;6.184;2023-04-24T11:46:35;111.35;;;36.40;;
50124;SDS011;36023;48.670;6.184;2023-04-24T11:49:03;109.75;;;36.75;;
50124;SDS011;36023;48.670;6.184;2023-04-24T11:51:28;99.00;;;33.22;;
50124;SDS011;36023;48.670;6.184;2023-04-24T11:53:55;89.68;;;31.63;;
50124;SDS011;36023;48.670;6.184;2023-04-24T11:56:22;81.07;;;32.35;;
50124;SDS011;36023;48.670;6.184;2023-04-24T11:58:51;80.18;;;29.08;;
50124;SDS011;36023;48.670;6.184;2023-04-24T12:01:19;80.75;;;26.08;;
50124;SDS011;36023;48.670;6.184;2023-04-24T12:03:49;70.88;;;23.38;;
50124;SDS011;36023;48.670;6.184;2023-04-24T12:06:19;69.03;;;25.35;;
50124;SDS011;36023;48.670;6.184;2023-04-24T12:08:46;67.63;;;23.35;;
50124;SDS011;36023;48.670;6.184;2023-04-24T12:11:14;68.05;;;23.90;;
50124;SDS011;36023;48.670;6.184;2023-04-24T12:13:40;62.42;;;21.67;;
50124;SDS011;36023;48.670;6.184;2023-04-24T12:16:06;49.13;;;18.70;;
50124;SDS011;36023;48.670;6.184;2023-04-24T12:18:31;55.38;;;20.80;;
50124;SDS011;36023;48.670;6.184;2023-04-24T12:23:43;41.25;;;15.60;;
50124;SDS011;36023;48.670;6.184;2023-04-24T12:26:12;49.47;;;17.45;;
50124;SDS011;36023;48.670;6.184;2023-04-24T12:28:42;40.28;;;15.15;;
50124;SDS011;36023;48.670;6.184;2023-04-24T12:31:07;45.00;;;17.30;;
50124;SDS011;36023;48.670;6.184;2023-04-24T12:33:33;46.22;;;16.02;;
50124;SDS011;36023;48.670;6.184;2023-04-24T12:36:02;38.97;;;14.32;;
50124;SDS011;36023;48.670;6.184;2023-04-24T12:38:28;31.17;;;12.82;;
50124;SDS011;36023;48.670;6.184;2023-04-24T12:41:06;47.05;;;13.80;;
50124;SDS011;36023;48.670;6.184;2023-04-24T12:43:36;29.67;;;12.02;;
50124;SDS011;36023;48.670;6.184;2023-04-24T12:46:03;47.47;;;14.70;;
50124;SDS011;36023;48.670;6.184;2023-04-24T12:48:30;30.88;;;11.35;;
50124;SDS011;36023;48.670;6.184;2023-04-24T12:50:57;27.55;;;10.70;;
50124;SDS011;36023;48.670;6.184;2023-04-24T12:53:26;30.75;;;10.52;;
50124;SDS011;36023;48.670;6.184;2023-04-24T12:55:54;27.38;;;10.00;;
50124;SDS011;36023;48.670;6.184;2023-04-24T12:58:20;29.00;;;10.32;;
50124;SDS011;36023;48.670;6.184;2023-04-24T13:00:46;32.45;;;10.05;;
50124;SDS011;36023;48.670;6.184;2023-04-24T13:03:12;26.25;;;9.43;;
50124;SDS011;36023;48.670;6.184;2023-04-24T13:05:38;21.38;;;8.27;;
50124;SDS011;36023;48.670;6.184;2023-04-24T13:08:05;23.60;;;10.23;;
50124;SDS011;36023;48.670;6.184;2023-04-24T13:10:31;23.42;;;7.93;;
50124;SDS011;36023;48.670;6.184;2023-04-24T13:12:57;18.65;;;8.07;;
50124;SDS011;36023;48.670;6.184;2023-04-24T13:15:22;20.27;;;7.80;;
50124;SDS011;36023;48.670;6.184;2023-04-24T13:17:48;18.85;;;6.78;;
50124;SDS011;36023;48.670;6.184;2023-04-24T13:20:14;14.77;;;5.40;;
50124;SDS011;36023;48.670;6.184;2023-04-24T13:22:41;18.23;;;6.53;;
50124;SDS011;36023;48.670;6.184;2023-04-24T13:25:07;17.75;;;7.25;;
50124;SDS011;36023;48.670;6.184;2023-04-24T13:27:35;21.45;;;7.18;;
50124;SDS011;36023;48.670;6.184;2023-04-24T13:30:01;13.15;;;5.93;;
50124;SDS011;36023;48.670;6.184;2023-04-24T13:32:27;20.98;;;6.65;;
50124;SDS011;36023;48.670;6.184;2023-04-24T13:34:53;17.90;;;5.60;;
50124;SDS011;36023;48.670;6.184;2023-04-24T13:37:19;14.85;;;5.18;;
50124;SDS011;36023;48.670;6.184;2023-04-24T13:39:45;13.05;;;5.00;;
50124;SDS011;36023;48.670;6.184;2023-04-24T13:42:10;14.82;;;5.72;;
50124;SDS011;36023;48.670;6.184;2023-04-24T13:44:36;11.00;;;3.38;;
50124;SDS011;36023;48.670;6.184;2023-04-24T13:47:03;7.30;;;3.55;;
50124;SDS011;36023;48.670;6.184;2023-04-24T13:49:28;12.60;;;4.75;;
50124;SDS011;36023;48.670;6.184;2023-04-24T13:51:54;11.48;;;2.92;;
50124;SDS011;36023;48.670;6.184;2023-04-24T13:54:21;14.73;;;4.32;;
50124;SDS011;36023;48.670;6.184;2023-04-24T13:56:48;8.38;;;2.72;;
50124;SDS011;36023;48.670;6.184;2023-04-24T13:59:16;7.18;;;3.00;;
50124;SDS011;36023;48.670;6.184;2023-04-24T14:01:42;9.25;;;3.45;;
50124;SDS011;36023;48.670;6.184;2023-04-24T14:04:10;6.78;;;3.35;;
50124;SDS011;36023;48.670;6.184;2023-04-24T14:06:36;9.63;;;4.40;;
50124;SDS011;36023;48.670;6.184;2023-04-24T14:09:03;10.55;;;3.45;;
50124;SDS011;36023;48.670;6.184;2023-04-24T14:11:29;7.10;;;3.28;;
50124;SDS011;36023;48.670;6.184;2023-04-24T14:13:55;9.07;;;3.47;;
50124;SDS011;36023;48.670;6.184;2023-04-24T14:16:23;12.07;;;3.47;;
50124;SDS011;36023;48.670;6.184;2023-04-24T14:18:49;7.88;;;2.53;;
50124;SDS011;36023;48.670;6.184;2023-04-24T14:21:15;6.13;;;2.15;;
50124;SDS011;36023;48.670;6.184;2023-04-24T14:23:41;6.18;;;2.70;;
50124;SDS011;36023;48.670;6.184;2023-04-24T14:26:07;5.63;;;2.65;;
50124;SDS011;36023;48.670;6.184;2023-04-24T14:28:33;5.65;;;2.00;;
50124;SDS011;36023;48.670;6.184;2023-04-24T14:31:00;5.10;;;1.90;;
50124;SDS011;36023;48.670;6.184;2023-04-24T14:33:26;4.47;;;1.95;;
50124;SDS011;36023;48.670;6.184;2023-04-24T14:35:53;4.72;;;2.20;;
50124;SDS011;36023;48.670;6.184;2023-04-24T14:38:19;4.97;;;1.70;;
50124;SDS011;36023;48.670;6.184;2023-04-24T14:40:44;2.47;;;1.17;;
50124;SDS011;36023;48.670;6.184;2023-04-24T14:43:10;5.82;;;1.48;;
50124;SDS011;36023;48.670;6.184;2023-04-24T14:45:36;2.92;;;1.40;;
50124;SDS011;36023;48.670;6.184;2023-04-24T14:48:03;3.58;;;1.90;;
50124;SDS011;36023;48.670;6.184;2023-04-24T14:50:29;3.08;;;1.60;;
50124;SDS011;36023;48.670;6.184;2023-04-24T14:52:55;2.97;;;1.73;;
50124;SDS011;36023;48.670;6.184;2023-04-24T14:55:24;4.13;;;2.58;;
50124;SDS011;36023;48.670;6.184;2023-04-24T14:57:51;5.82;;;1.42;;